Time;durP1;ratioP1;P1;durP2;ratioP2;P2;SDS_P1;SDS_P2;PMS_P1;PMS_P2;Temp;Humidity;BMP_temperature;BMP_pressure;BME280_temperature;BME280_humidity;BME280_pressure;Samples;Min_cycle;Max_cycle;Signal;HPM_P1;HPM_P2
2021/07/01 00:00:19;;;;;;;30.27;14.82;;;;;;;18.38;100.00;100319.88;4947370;29;20081;-70
2021/07/01 00:02:45;;;;;;;31.65;15.30;;;;;;;18.31;100.00;100312.56;4931564;29;20039;-71
2021/07/01 00:05:14;;;;;;;27.50;13.90;;;;;;;18.48;100.00;100324.41;4932341;29;20509;-70
2021/07/01 00:07:43;;;;;;;32.47;14.40;;;;;;;18.40;100.00;100301.16;4933870;29;20463;-71
2021/07/01 00:10:15;;;;;;;30.10;14.52;;;;;;;18.32;100.00;100307.91;4933691;29;20028;-70
2021/07/01 00:12:41;;;;;;;32.90;15.02;;;;;;;18.36;100.00;100308.63;4929853;29;20042;-71
2021/07/01 00:15:10;;;;;;;30.60;14.32;;;;;;;18.37;100.00;100305.47;4932327;29;20040;-70
2021/07/01 00:17:36;;;;;;;29.80;15.43;;;;;;;18.45;100.00;100308.88;4933178;29;20040;-70
2021/07/01 00:20:06;;;;;;;28.17;14.35;;;;;;;18.53;100.00;100299.38;4917034;29;20090;-70
2021/07/01 00:22:31;;;;;;;25.92;14.82;;;;;;;18.46;100.00;100297.56;4912575;29;20759;-71
2021/07/01 00:24:57;;;;;;;29.17;15.00;;;;;;;18.33;100.00;100299.31;4932419;29;20035;-71
2021/07/01 00:27:22;;;;;;;31.13;15.43;;;;;;;18.44;100.00;100296.44;4928038;29;20051;-71
2021/07/01 00:29:48;;;;;;;26.80;14.18;;;;;;;18.37;100.00;100285.63;4933166;29;20047;-70
2021/07/01 00:32:13;;;;;;;26.05;13.45;;;;;;;18.39;100.00;100286.72;4925938;29;20048;-70
2021/07/01 00:34:39;;;;;;;25.98;12.82;;;;;;;18.31;100.00;100287.28;4931325;29;20418;-71
2021/07/01 00:37:04;;;;;;;25.80;12.55;;;;;;;18.31;100.00;100288.03;4912920;29;20031;-70
2021/07/01 00:39:30;;;;;;;21.40;11.73;;;;;;;18.27;100.00;100287.34;4933393;29;20035;-71
2021/07/01 00:41:55;;;;;;;21.92;11.75;;;;;;;18.35;100.00;100285.28;4926263;29;20117;-70
2021/07/01 00:44:21;;;;;;;21.35;11.35;;;;;;;18.37;100.00;100285.63;4931544;29;20455;-71
2021/07/01 00:46:47;;;;;;;21.83;10.82;;;;;;;18.30;100.00;100288.47;4938779;29;20090;-71
2021/07/01 00:49:12;;;;;;;23.30;10.40;;;;;;;18.23;100.00;100292.09;4933115;29;20038;-71
2021/07/01 00:51:39;;;;;;;19.40;10.02;;;;;;;18.33;100.00;100284.91;4938212;29;20087;-70
2021/07/01 00:54:04;;;;;;;16.65;8.85;;;;;;;18.31;100.00;100282.59;4915431;29;20058;-70
2021/07/01 00:56:36;;;;;;;16.63;9.25;;;;;;;18.17;100.00;100292.97;4933784;29;20506;-71
2021/07/01 00:59:04;;;;;;;15.35;8.90;;;;;;;18.22;100.00;100289.75;4915937;29;20049;-70
2021/07/01 01:01:30;;;;;;;19.60;9.07;;;;;;;18.29;100.00;100284.97;4913016;29;20110;-71
2021/07/01 01:03:56;;;;;;;15.13;9.32;;;;;;;18.27;100.00;100284.63;4933955;29;20083;-71
2021/07/01 01:06:22;;;;;;;17.17;9.15;;;;;;;18.20;100.00;100286.69;4928161;29;20027;-71
2021/07/01 01:08:49;;;;;;;17.55;9.13;;;;;;;18.25;100.00;100281.53;4913921;29;20486;-71
2021/07/01 01:11:15;;;;;;;18.25;9.32;;;;;;;18.29;100.00;100276.03;4915610;29;20034;-71
2021/07/01 01:13:44;;;;;;;16.27;9.32;;;;;;;18.33;100.00;100269.31;4927517;29;20166;-71
2021/07/01 01:16:36;;;;;;;19.58;9.55;;;;;;;18.28;100.00;100277.19;4931414;29;20130;-70
2021/07/01 01:19:04;;;;;;;20.25;9.38;;;;;;;18.25;100.00;100267.13;4937251;29;20024;-70
2021/07/01 01:21:31;;;;;;;18.80;8.73;;;;;;;18.30;100.00;100270.16;4934037;29;20063;-71
2021/07/01 01:23:59;;;;;;;16.70;9.05;;;;;;;18.19;100.00;100274.25;4928857;29;20118;-71
2021/07/01 01:26:25;;;;;;;18.33;9.57;;;;;;;18.30;100.00;100269.38;4931330;29;20036;-70
2021/07/01 01:28:52;;;;;;;15.13;9.25;;;;;;;18.21;100.00;100267.19;4924667;29;20050;-71
2021/07/01 01:31:18;;;;;;;17.95;9.93;;;;;;;18.21;100.00;100255.53;4930946;29;20106;-70
2021/07/01 01:33:44;;;;;;;17.42;9.18;;;;;;;18.22;100.00;100259.78;4931524;29;20163;-71
2021/07/01 01:36:11;;;;;;;16.60;9.32;;;;;;;18.23;100.00;100255.88;4944076;23;20051;-74
2021/07/01 01:38:38;;;;;;;19.02;10.27;;;;;;;18.22;100.00;100262.50;4951143;28;20035;-75
2021/07/01 01:41:30;;;;;;;24.67;9.88;;;;;;;18.12;100.00;100258.78;4945384;28;20413;-75
2021/07/01 01:43:57;;;;;;;20.88;10.20;;;;;;;18.16;100.00;100264.16;4956941;28;20066;-74
2021/07/01 01:46:23;;;;;;;17.85;10.90;;;;;;;18.12;100.00;100258.03;4957205;28;20178;-75
2021/07/01 01:48:53;;;;;;;21.88;11.38;;;;;;;18.18;100.00;100256.34;4939642;28;20034;-74
2021/07/01 01:51:20;;;;;;;21.42;11.50;;;;;;;18.09;100.00;100261.56;4930035;29;20037;-74
2021/07/01 01:53:49;;;;;;;18.83;10.98;;;;;;;18.17;100.00;100257.53;4951603;28;20035;-74
2021/07/01 01:56:19;;;;;;;25.00;12.15;;;;;;;18.13;100.00;100265.00;4944164;28;20520;-75
2021/07/01 01:58:46;;;;;;;17.90;11.15;;;;;;;18.12;100.00;100261.50;4948791;28;20145;-74
2021/07/01 02:01:32;;;;;;;19.77;11.48;;;;;;;18.17;100.00;100254.81;4942158;28;20047;-74
2021/07/01 02:04:03;;;;;;;18.50;11.52;;;;;;;18.13;100.00;100256.81;4935727;29;20040;-74
2021/07/01 02:06:40;;;;;;;20.02;11.68;;;;;;;18.04;100.00;100257.34;4925125;28;20035;-74
2021/07/01 02:09:07;;;;;;;22.83;12.45;;;;;;;18.09;100.00;100254.16;4953559;28;20094;-74
2021/07/01 02:11:44;;;;;;;22.98;13.13;;;;;;;18.16;100.00;100261.44;4935094;29;20023;-75
2021/07/01 02:14:16;;;;;;;22.02;13.18;;;;;;;18.15;100.00;100251.72;4938338;28;20414;-74
2021/07/01 02:17:05;;;;;;;21.07;12.80;;;;;;;18.08;100.00;100251.84;4929203;29;20750;-74
2021/07/01 02:19:31;;;;;;;25.42;14.70;;;;;;;18.07;100.00;100261.19;4937563;29;20620;-73
2021/07/01 02:21:57;;;;;;;27.23;15.20;;;;;;;18.10;100.00;100249.50;4957416;28;20023;-74
2021/07/01 02:24:24;;;;;;;31.02;16.52;;;;;;;18.16;100.00;100250.53;4933198;29;20039;-74
2021/07/01 02:26:50;;;;;;;32.17;16.50;;;;;;;18.00;100.00;100260.13;4955084;28;20023;-73
2021/07/01 02:29:16;;;;;;;35.47;17.13;;;;;;;18.11;100.00;100257.25;4952909;28;20122;-73
2021/07/01 02:32:11;;;;;;;32.72;17.70;;;;;;;18.00;100.00;100256.66;4947289;28;20035;-74
2021/07/01 02:34:41;;;;;;;32.40;18.77;;;;;;;18.04;100.00;100255.41;4935740;28;20457;-73
2021/07/01 02:37:26;;;;;;;33.63;17.88;;;;;;;18.10;100.00;100249.50;4955694;28;20049;-74
2021/07/01 02:39:54;;;;;;;35.63;19.35;;;;;;;18.11;100.00;100259.19;4952991;28;20505;-74
2021/07/01 02:42:20;;;;;;;32.83;19.48;;;;;;;18.14;100.00;100255.66;4938201;29;20039;-74
2021/07/01 02:44:46;;;;;;;39.80;19.35;;;;;;;18.24;100.00;100254.69;4939344;29;20115;-74
2021/07/01 02:47:44;;;;;;;33.15;18.48;;;;;;;18.12;100.00;100250.59;4944011;28;20039;-74
2021/07/01 02:50:11;;;;;;;36.63;17.77;;;;;;;18.14;100.00;100252.94;4955964;28;20106;-73
2021/07/01 02:52:37;;;;;;;32.00;17.38;;;;;;;18.04;100.00;100260.06;4956836;28;20114;-73
2021/07/01 02:55:06;;;;;;;31.80;17.73;;;;;;;17.94;100.00;100261.03;4919384;28;20222;-74
2021/07/01 02:57:33;;;;;;;36.75;18.75;;;;;;;18.05;100.00;100253.44;4932448;29;20051;-73
2021/07/01 02:59:59;;;;;;;31.92;17.48;;;;;;;18.14;100.00;100261.84;4927660;29;20086;-74
2021/07/01 03:02:45;;;;;;;33.35;17.85;;;;;;;18.00;100.00;100262.09;4953939;28;20519;-73
2021/07/01 03:05:18;;;;;;;31.83;17.17;;;;;;;17.99;100.00;100255.88;4935759;28;20027;-73
2021/07/01 03:07:44;;;;;;;29.33;17.20;;;;;;;18.02;100.00;100257.00;4953331;28;20586;-74
2021/07/01 03:10:10;;;;;;;27.92;16.55;;;;;;;17.97;100.00;100257.47;4918615;29;20035;-74
2021/07/01 03:12:53;;;;;;;28.45;16.60;;;;;;;17.98;100.00;100259.78;4934066;29;20033;-73
2021/07/01 03:15:18;;;;;;;28.58;15.70;;;;;;;17.99;100.00;100261.34;4934754;29;20118;-74
2021/07/01 03:17:44;;;;;;;26.23;15.73;;;;;;;18.08;100.00;100251.84;4948811;28;20062;-74
2021/07/01 03:20:11;;;;;;;27.52;16.70;;;;;;;18.12;100.00;100255.28;4951130;28;20122;-73
2021/07/01 03:22:55;;;;;;;31.85;17.65;;;;;;;18.13;100.00;100252.16;4937797;28;20110;-73
2021/07/01 03:25:21;;;;;;;34.90;17.83;;;;;;;18.11;100.00;100251.00;4936350;29;20039;-75
2021/07/01 03:27:47;;;;;;;31.23;17.08;;;;;;;18.04;100.00;100257.34;4932786;28;20125;-74
2021/07/01 03:30:14;;;;;;;32.42;17.17;;;;;;;18.00;100.00;100251.97;4919475;29;20027;-74
2021/07/01 03:32:42;;;;;;;29.65;16.67;;;;;;;17.99;100.00;100247.72;4951059;28;20034;-73
2021/07/01 03:35:08;;;;;;;28.90;17.08;;;;;;;18.13;100.00;100249.41;4931374;29;20031;-73
2021/07/01 03:37:54;;;;;;;27.38;15.82;;;;;;;17.98;100.00;100248.88;4935410;28;20067;-73
2021/07/01 03:40:28;;;;;;;23.92;14.75;;;;;;;18.10;100.00;100241.31;4935071;29;20114;-73
2021/07/01 03:42:54;;;;;;;24.02;13.55;;;;;;;18.09;100.00;100247.94;4951938;28;20121;-73
2021/07/01 03:45:20;;;;;;;19.17;12.10;;;;;;;18.04;100.00;100241.75;4950064;28;20031;-73
2021/07/01 03:47:46;;;;;;;20.73;12.30;;;;;;;17.95;100.00;100244.25;4951543;28;20058;-73
2021/07/01 03:50:12;;;;;;;20.75;12.88;;;;;;;18.00;100.00;100240.31;4952092;28;20134;-73
2021/07/01 03:52:56;;;;;;;24.77;13.77;;;;;;;18.03;100.00;100248.41;4922993;28;20067;-73
2021/07/01 03:55:23;;;;;;;22.20;12.80;;;;;;;18.01;100.00;100248.06;4933876;28;20036;-73
2021/07/01 03:57:49;;;;;;;21.67;13.13;;;;;;;18.01;100.00;100242.59;4932273;29;20043;-73
2021/07/01 04:00:16;;;;;;;26.23;14.07;;;;;;;17.96;100.00;100253.22;4941747;29;20031;-73
2021/07/01 04:02:44;;;;;;;26.80;14.40;;;;;;;18.01;100.00;100256.25;4941128;28;20073;-73
2021/07/01 04:05:14;;;;;;;30.95;14.45;;;;;;;17.96;100.00;100255.94;4940252;28;20035;-72
2021/07/01 04:07:40;;;;;;;28.35;15.18;;;;;;;17.85;100.00;100252.59;4916151;28;20106;-73
2021/07/01 04:10:09;;;;;;;28.90;15.05;;;;;;;17.96;100.00;100255.94;4935676;29;20039;-74
2021/07/01 04:12:54;;;;;;;32.53;15.52;;;;;;;17.95;100.00;100246.22;4939901;28;20043;-74
2021/07/01 04:15:43;;;;;;;32.65;15.57;;;;;;;17.95;100.00;100252.44;4936158;29;20538;-74
2021/07/01 04:18:20;;;;;;;31.27;16.25;;;;;;;17.89;100.00;100247.88;4936266;28;20521;-74
2021/07/01 04:21:04;;;;;;;37.35;17.65;;;;;;;17.90;100.00;100254.88;4950673;28;20592;-74
2021/07/01 04:23:49;;;;;;;36.75;17.90;;;;;;;17.83;100.00;100257.69;4948960;28;20054;-74
2021/07/01 04:26:33;;;;;;;36.05;18.77;;;;;;;17.83;100.00;100257.69;4934976;29;20098;-74
2021/07/01 04:29:05;;;;;;;39.47;21.47;;;;;;;17.77;100.00;100253.88;4934461;29;20027;-74
2021/07/01 04:31:33;;;;;;;36.53;19.10;;;;;;;17.91;100.00;100259.13;4933866;29;20797;-74
2021/07/01 04:34:03;;;;;;;37.75;20.08;;;;;;;17.91;100.00;100265.34;4916690;28;20476;-73
2021/07/01 04:36:28;;;;;;;39.42;20.20;;;;;;;17.89;100.00;100265.00;4943358;28;20031;-74
2021/07/01 04:38:55;;;;;;;37.95;20.20;;;;;;;17.95;100.00;100259.84;4931758;29;20035;-73
2021/07/01 04:41:23;;;;;;;42.22;21.25;;;;;;;17.86;100.00;100262.31;4933437;29;20031;-73
2021/07/01 04:43:52;;;;;;;38.65;21.10;;;;;;;17.90;100.00;100265.78;4949297;29;20039;-73
2021/07/01 04:46:19;;;;;;;38.67;20.23;;;;;;;17.96;100.00;100267.59;4947059;28;20050;-73
2021/07/01 04:48:51;;;;;;;42.35;20.17;;;;;;;18.05;100.00;100269.81;4933199;28;20020;-74
2021/07/01 04:51:17;;;;;;;40.50;20.95;;;;;;;17.86;100.00;100257.66;4942403;29;20387;-73
2021/07/01 04:54:01;;;;;;;46.83;23.40;;;;;;;17.89;100.00;100262.28;4947159;28;20057;-72
2021/07/01 04:56:45;;;;;;;41.55;21.30;;;;;;;17.91;100.00;100259.91;4935076;29;20054;-73
2021/07/01 04:59:20;;;;;;;46.90;22.00;;;;;;;17.93;100.00;100268.44;4949609;28;20043;-73
2021/07/01 05:01:58;;;;;;;36.83;20.98;;;;;;;17.91;100.00;100262.63;4945423;29;20503;-73
2021/07/01 05:04:41;;;;;;;34.70;19.98;;;;;;;17.89;100.00;100261.50;4920510;29;20182;-73
2021/07/01 05:07:08;;;;;;;38.55;20.70;;;;;;;17.93;100.00;100268.44;4947026;28;20480;-74
2021/07/01 05:09:38;;;;;;;35.10;19.52;;;;;;;17.89;100.00;100275.13;4939517;28;20082;-73
2021/07/01 05:12:18;;;;;;;32.65;17.52;;;;;;;17.90;100.00;100273.94;4932860;29;20026;-73
2021/07/01 05:14:43;;;;;;;34.17;18.95;;;;;;;17.85;100.00;100271.66;4949274;29;20027;-74
2021/07/01 05:17:09;;;;;;;35.33;17.58;;;;;;;17.91;100.00;100270.81;4946301;28;20042;-74
2021/07/01 05:19:35;;;;;;;30.95;16.95;;;;;;;17.80;100.00;100270.19;4945569;28;20027;-74
2021/07/01 05:22:05;;;;;;;31.65;16.38;;;;;;;17.78;100.00;100263.63;4913375;29;20031;-74
2021/07/01 05:24:49;;;;;;;27.38;15.85;;;;;;;17.73;100.00;100266.81;4947879;28;20109;-74
2021/07/01 05:27:33;;;;;;;28.70;15.30;;;;;;;17.80;100.00;100275.66;4949791;28;20051;-74
2021/07/01 05:30:17;;;;;;;23.80;15.00;;;;;;;17.76;100.00;100274.94;4950333;28;20959;-74
2021/07/01 05:33:01;;;;;;;25.95;14.43;;;;;;;17.90;100.00;100274.69;4937320;29;20433;-74
2021/07/01 05:35:31;;;;;;;23.40;15.05;;;;;;;17.85;100.00;100272.44;4946311;29;20031;-74
2021/07/01 05:37:58;;;;;;;22.77;13.50;;;;;;;17.85;100.00;100269.72;4948651;28;20058;-74
2021/07/01 05:40:26;;;;;;;23.65;13.73;;;;;;;17.83;100.00;100263.13;4950092;29;20042;-74
2021/07/01 05:42:52;;;;;;;20.55;13.38;;;;;;;17.78;100.00;100271.78;4931700;29;20036;-74
2021/07/01 05:45:18;;;;;;;21.85;13.15;;;;;;;17.86;100.00;100273.22;4933809;28;20713;-74
2021/07/01 05:47:44;;;;;;;19.85;11.43;;;;;;;17.89;100.00;100277.84;4949255;28;20093;-74
2021/07/01 05:50:13;;;;;;;22.95;10.90;;;;;;;17.86;100.00;100271.28;4934470;29;20098;-74
2021/07/01 05:52:42;;;;;;;19.48;11.25;;;;;;;17.88;100.00;100284.47;4934465;29;20757;-73
2021/07/01 05:55:08;;;;;;;16.80;10.80;;;;;;;17.94;100.00;100278.13;4925388;28;20134;-74
2021/07/01 05:57:34;;;;;;;17.40;10.57;;;;;;;17.94;100.00;100280.13;4937970;29;20035;-74
2021/07/01 05:59:59;;;;;;;15.82;9.70;;;;;;;17.89;100.00;100284.06;4951916;29;20090;-73
2021/07/01 06:02:25;;;;;;;18.70;10.70;;;;;;;17.91;100.00;100283.66;4930583;28;20399;-73
2021/07/01 06:04:51;;;;;;;18.95;10.70;;;;;;;17.91;100.00;100287.16;4947245;29;20449;-74
2021/07/01 06:07:56;;;;;;;15.63;10.15;;;;;;;18.02;100.00;100287.00;4946598;29;20119;-73
2021/07/01 06:10:23;;;;;;;13.85;9.85;;;;;;;17.95;100.00;100284.38;4947333;29;20115;-74
2021/07/01 06:12:50;;;;;;;14.93;9.77;;;;;;;17.98;100.00;100280.81;4928176;29;20027;-74
2021/07/01 06:15:15;;;;;;;14.45;9.73;;;;;;;17.92;100.00;100285.94;4943934;28;20027;-73
2021/07/01 06:17:42;;;;;;;14.75;10.05;;;;;;;18.00;100.00;100279.22;4930097;29;20524;-73
2021/07/01 06:20:10;;;;;;;19.95;10.63;;;;;;;18.04;100.00;100285.38;4933469;29;20062;-74
2021/07/01 06:22:37;;;;;;;15.05;10.50;;;;;;;18.02;100.00;100276.84;4951134;28;20037;-73
2021/07/01 06:25:04;;;;;;;14.18;10.43;;;;;;;18.10;100.00;100288.41;4945283;29;20027;-74
2021/07/01 06:30:08;;;;;;;16.60;10.80;;;;;;;18.17;100.00;100290.25;4950844;28;20047;-75
2021/07/01 06:32:40;;;;;;;18.08;11.05;;;;;;;18.04;100.00;100282.66;4933050;29;20541;-74
2021/07/01 06:35:06;;;;;;;14.98;11.18;;;;;;;18.04;100.00;100288.09;4945783;28;20118;-74
2021/07/01 06:37:33;;;;;;;17.13;10.48;;;;;;;18.16;100.00;100288.69;4947077;28;20163;-74
2021/07/01 06:40:18;;;;;;;15.30;10.52;;;;;;;18.13;100.00;100284.84;4940043;29;20097;-74
2021/07/01 06:43:02;;;;;;;19.85;11.32;;;;;;;18.12;100.00;100285.28;4952525;28;20094;-74
2021/07/01 06:45:48;;;;;;;16.70;10.75;;;;;;;18.13;100.00;100282.13;4952330;28;20512;-74
2021/07/01 06:48:33;;;;;;;14.10;10.40;;;;;;;18.19;100.00;100282.44;4947515;29;20046;-74
2021/07/01 06:51:41;;;;;;;14.43;10.55;;;;;;;18.25;100.00;100286.22;4942607;28;20508;-73
2021/07/01 06:54:25;;;;;;;16.10;11.60;;;;;;;18.31;100.00;100292.75;4953565;28;20045;-73
2021/07/01 06:57:13;;;;;;;16.23;11.43;;;;;;;18.37;100.00;100285.63;4948414;28;20085;-73
2021/07/01 06:59:39;;;;;;;18.35;12.27;;;;;;;18.35;100.00;100296.19;4954183;28;20522;-73
2021/07/01 07:02:04;;;;;;;19.77;13.07;;;;;;;18.44;100.00;100297.22;4949738;28;20034;-73
2021/07/01 07:04:32;;;;;;;17.17;11.70;;;;;;;18.44;100.00;100299.16;4930844;29;20039;-73
2021/07/01 07:06:58;;;;;;;18.33;12.75;;;;;;;18.48;100.00;100306.09;4951763;28;20031;-73
2021/07/01 07:09:24;;;;;;;20.38;11.93;;;;;;;18.45;100.00;100301.47;4945472;29;20039;-73
2021/07/01 07:11:50;;;;;;;20.83;13.18;;;;;;;18.47;100.00;100299.09;4935803;28;20066;-73
2021/07/01 07:14:16;;;;;;;20.40;14.52;;;;;;;18.43;100.00;100311.25;4932624;29;20035;-73
2021/07/01 07:16:42;;;;;;;19.27;13.63;;;;;;;18.43;100.00;100306.56;4948483;29;20015;-74
2021/07/01 07:19:09;;;;;;;25.00;13.73;;;;;;;18.44;100.00;100312.81;4949716;28;20166;-73
2021/07/01 07:21:44;;;;;;;21.55;13.15;;;;;;;18.45;100.00;100308.88;4950878;28;20118;-73
2021/07/01 07:24:12;;;;;;;17.33;11.82;;;;;;;18.62;100.00;100310.53;4946773;28;20031;-74
2021/07/01 07:26:39;;;;;;;17.05;12.18;;;;;;;18.58;100.00;100316.03;4935212;29;20555;-73
2021/07/01 07:29:08;;;;;;;16.50;10.93;;;;;;;18.56;100.00;100306.75;4940848;29;20406;-74
2021/07/01 07:31:39;;;;;;;19.45;11.45;;;;;;;18.42;100.00;100317.88;4920009;29;20498;-74
2021/07/01 07:34:04;;;;;;;15.75;11.18;;;;;;;18.37;100.00;100318.34;4952358;29;20478;-74
2021/07/01 07:38:56;;;;;;;14.98;10.23;;;;;;;18.46;100.00;100311.19;5191434;23;20071;-72
2021/07/01 07:41:22;;;;;;;13.75;10.48;;;;;;;18.46;100.00;100316.66;4929562;29;20455;-72
2021/07/01 07:43:50;;;;;;;14.70;9.60;;;;;;;18.45;100.00;100311.59;4934495;29;20110;-72
2021/07/01 07:46:20;;;;;;;12.55;8.52;;;;;;;18.42;100.00;100317.88;4929730;29;20035;-72
2021/07/01 07:48:46;;;;;;;12.50;9.43;;;;;;;18.47;100.00;100322.88;4926130;29;20048;-72
2021/07/01 07:51:15;;;;;;;67.55;54.45;;;;;;;18.44;100.00;100331.88;4937502;29;20039;-72
2021/07/01 07:53:42;;;;;;;20.95;18.80;;;;;;;18.47;100.00;100328.31;4929240;29;20047;-72
2021/07/01 07:56:10;;;;;;;11.85;8.30;;;;;;;18.47;100.00;100323.63;4931088;29;20031;-72
2021/07/01 07:58:46;;;;;;;10.57;8.48;;;;;;;18.46;100.00;100313.94;4930956;29;20038;-72
2021/07/01 08:01:12;;;;;;;12.98;8.43;;;;;;;18.53;100.00;100318.47;4944377;29;20127;-72
2021/07/01 08:03:40;;;;;;;10.18;7.07;;;;;;;18.51;100.00;100309.94;4928374;29;20123;-72
2021/07/01 08:06:07;;;;;;;10.02;6.85;;;;;;;18.53;100.00;100318.47;4926558;29;20121;-72
2021/07/01 08:08:36;;;;;;;9.70;7.00;;;;;;;18.50;100.00;100311.13;4928240;29;20105;-72
2021/07/01 08:11:05;;;;;;;8.55;6.30;;;;;;;18.44;100.00;100313.56;4927506;29;20036;-72
2021/07/01 08:13:32;;;;;;;7.72;6.50;;;;;;;18.47;100.00;100318.19;4928266;29;20054;-72
2021/07/01 08:15:58;;;;;;;8.70;7.80;;;;;;;18.52;100.00;100325.13;4931988;29;20051;-72
2021/07/01 08:18:39;;;;;;;10.25;7.97;;;;;;;18.42;100.00;100326.84;4934882;29;20050;-72
2021/07/01 08:21:09;;;;;;;12.38;8.35;;;;;;;18.54;100.00;100322.75;4932300;29;20046;-72
2021/07/01 08:23:35;;;;;;;12.95;7.95;;;;;;;18.59;100.00;100330.44;4928042;29;20036;-72
2021/07/01 08:26:04;;;;;;;10.10;8.40;;;;;;;18.63;100.00;100322.97;4925189;29;20096;-72
2021/07/01 08:28:30;;;;;;;8.85;7.75;;;;;;;18.66;100.00;100325.63;4932262;29;20537;-72
2021/07/01 08:30:59;;;;;;;10.60;8.13;;;;;;;18.75;100.00;100334.06;4928479;29;20060;-72
2021/07/01 08:33:31;;;;;;;10.18;8.07;;;;;;;18.78;100.00;100330.50;4933026;29;20035;-72
2021/07/01 08:35:59;;;;;;;10.95;8.75;;;;;;;18.85;100.00;100324.88;4928369;29;20122;-72
2021/07/01 08:38:25;;;;;;;10.77;8.45;;;;;;;18.82;100.00;100333.16;4942466;29;20046;-72
2021/07/01 08:40:58;;;;;;;13.65;8.38;;;;;;;18.85;100.00;100329.59;4932074;29;20036;-72
2021/07/01 08:43:25;;;;;;;11.75;8.40;;;;;;;18.92;100.00;100334.91;4929678;29;20482;-72
2021/07/01 08:46:26;;;;;;;13.18;8.63;;;;;;;18.92;100.00;100332.19;4944555;29;20058;-72
2021/07/01 08:49:08;;;;;;;11.05;8.27;;;;;;;18.89;100.00;100339.25;4913657;29;20054;-72
2021/07/01 08:51:33;;;;;;;10.88;8.38;;;;;;;18.98;100.00;100335.19;4929564;29;20039;-72
2021/07/01 08:54:05;;;;;;;12.27;9.27;;;;;;;19.03;100.00;100332.00;4925120;29;20051;-72
2021/07/01 08:56:34;;;;;;;12.15;9.23;;;;;;;19.10;100.00;100332.63;4924534;29;20054;-72
2021/07/01 08:59:05;;;;;;;14.75;10.40;;;;;;;19.19;100.00;100332.81;4943351;29;20086;-72
2021/07/01 09:01:31;;;;;;;17.00;10.38;;;;;;;19.23;100.00;100343.66;4926959;29;20482;-72
2021/07/01 09:03:58;;;;;;;14.23;10.85;;;;;;;19.15;100.00;100331.34;4928123;29;20102;-72
2021/07/01 09:06:26;;;;;;;17.27;10.65;;;;;;;19.19;100.00;100335.56;4911157;29;20122;-72
2021/07/01 09:08:53;;;;;;;16.02;10.20;;;;;;;19.16;100.00;100341.88;4933623;29;20507;-72
2021/07/01 09:11:27;;;;;;;15.48;10.95;;;;;;;19.24;100.00;100332.31;4929450;29;20032;-72
2021/07/01 09:13:57;;;;;;;18.33;10.73;;;;;;;19.28;100.00;100343.19;4926758;29;20043;-72
2021/07/01 09:16:24;;;;;;;15.93;10.63;;;;;;;19.26;100.00;100337.38;4929113;29;20083;-72
2021/07/01 09:18:53;;;;;;;16.70;11.30;;;;;;;19.24;100.00;100342.50;4925455;29;20094;-72
2021/07/01 09:21:21;;;;;;;16.02;12.00;;;;;;;19.22;100.00;100342.13;4922891;29;20142;-72
2021/07/01 09:23:47;;;;;;;19.35;12.32;;;;;;;19.24;100.00;100342.50;4927088;29;20040;-71
2021/07/01 09:26:26;;;;;;;17.88;12.38;;;;;;;19.34;100.00;100341.50;4929562;29;20044;-71
2021/07/01 09:28:53;;;;;;;17.20;12.73;;;;;;;19.28;100.00;100343.94;4928602;29;20134;-72
2021/07/01 09:31:22;;;;;;;23.40;13.27;;;;;;;19.33;100.00;100351.69;4929196;29;20036;-72
2021/07/01 09:33:49;;;;;;;20.92;12.48;;;;;;;19.26;100.00;100351.78;4927936;29;20047;-72
2021/07/01 09:36:18;;;;;;;22.63;13.13;;;;;;;19.23;100.00;100357.31;4925830;29;20043;-72
2021/07/01 09:38:46;;;;;;;18.58;12.48;;;;;;;19.27;100.00;100360.75;4921459;29;20031;-72
2021/07/01 09:41:13;;;;;;;19.35;12.40;;;;;;;19.33;100.00;100361.84;4929043;29;20123;-72
2021/07/01 09:43:44;;;;;;;16.45;12.00;;;;;;;19.38;100.00;100353.91;4931168;29;20058;-72
2021/07/01 09:46:15;;;;;;;;;;;;;;;19.13;100.00;100352.84;4928436;29;20397;-72
2021/07/01 09:48:47;;;;;;;17.98;11.35;;;;;;;19.27;100.00;100360.75;4923633;29;20308;-72
2021/07/01 09:51:14;;;;;;;16.67;11.63;;;;;;;19.26;100.00;100349.06;4929930;29;20035;-72
2021/07/01 09:53:40;;;;;;;17.83;12.30;;;;;;;19.33;100.00;100359.09;4930021;29;20078;-72
2021/07/01 09:56:12;;;;;;;20.25;12.95;;;;;;;19.38;100.00;100351.19;4931141;29;20398;-72
2021/07/01 09:58:45;;;;;;;20.70;12.25;;;;;;;19.40;100.00;100353.47;4940398;28;20067;-72
2021/07/01 10:01:32;;;;;;;18.20;11.90;;;;;;;19.38;100.00;100358.59;4930750;29;20028;-72
2021/07/01 10:04:00;;;;;;;18.10;12.25;;;;;;;19.45;100.00;100361.94;4928972;29;20043;-72
2021/07/01 10:06:26;;;;;;;18.10;11.20;;;;;;;19.47;100.00;100361.56;4934139;29;20106;-72
2021/07/01 10:08:52;;;;;;;19.83;11.38;;;;;;;19.56;100.00;100359.78;4930767;29;20115;-72
2021/07/01 10:11:33;;;;;;;18.75;11.25;;;;;;;19.47;100.00;100356.84;4935154;29;20418;-72
2021/07/01 10:13:59;;;;;;;13.82;10.27;;;;;;;19.47;100.00;100358.81;4928818;29;20123;-72
2021/07/01 10:16:29;;;;;;;17.73;10.13;;;;;;;19.52;100.00;100363.78;4931467;29;20062;-72
2021/07/01 10:18:56;;;;;;;15.50;10.23;;;;;;;19.52;100.00;100361.03;4926758;29;20064;-73
2021/07/01 10:21:22;;;;;;;16.88;10.00;;;;;;;19.53;100.00;100357.13;4934447;29;20028;-72
2021/07/01 10:23:49;;;;;;;15.18;11.10;;;;;;;19.54;100.00;100364.13;4930543;29;20565;-72
2021/07/01 10:26:23;;;;;;;16.35;11.50;;;;;;;19.53;100.00;100366.09;4930339;29;20031;-72
2021/07/01 10:29:00;;;;;;;16.85;11.75;;;;;;;19.51;100.00;100368.47;4916901;29;20158;-72
2021/07/01 10:31:26;;;;;;;24.35;12.90;;;;;;;19.58;100.00;100373.81;4928135;29;20090;-71
2021/07/01 10:33:58;;;;;;;22.35;12.40;;;;;;;19.56;100.00;100368.00;4928898;29;20609;-71
2021/07/01 10:36:26;;;;;;;17.15;11.50;;;;;;;19.51;100.00;100360.28;4937366;29;20526;-71
2021/07/01 10:38:54;;;;;;;22.80;11.70;;;;;;;19.53;100.00;100360.63;4948352;29;20047;-71
2021/07/01 10:41:32;;;;;;;22.75;12.13;;;;;;;19.59;100.00;100369.88;4933420;29;20038;-71
2021/07/01 10:43:59;;;;;;;21.52;12.85;;;;;;;19.60;100.00;100370.63;4929845;29;20047;-71
2021/07/01 10:46:45;;;;;;;22.15;11.95;;;;;;;19.53;100.00;100377.00;4932570;29;20430;-71
2021/07/01 10:49:12;;;;;;;19.67;12.27;;;;;;;19.64;100.00;100363.91;4932826;29;20441;-71
2021/07/01 10:51:53;;;;;;;21.30;12.85;;;;;;;19.61;100.00;100370.22;4928564;29;20028;-71
2021/07/01 10:54:18;;;;;;;22.92;13.25;;;;;;;19.69;100.00;100371.59;4930922;29;20035;-71
2021/07/01 10:56:49;;;;;;;21.45;12.25;;;;;;;19.76;100.00;100374.16;4925394;29;20564;-71
2021/07/01 10:59:14;;;;;;;24.08;13.50;;;;;;;19.80;100.00;100376.84;4927784;29;20394;-71
2021/07/01 11:01:45;;;;;;;21.58;12.70;;;;;;;19.86;100.00;100374.38;4926451;29;20042;-71
2021/07/01 11:04:13;;;;;;;21.58;11.95;;;;;;;19.90;100.00;100383.28;4927111;29;20446;-71
2021/07/01 11:06:44;;;;;;;16.55;10.50;;;;;;;19.88;100.00;100380.19;4927778;29;20049;-71
2021/07/01 11:09:13;;;;;;;16.60;10.40;;;;;;;19.91;100.00;100380.13;4922848;29;20090;-71
2021/07/01 11:11:40;;;;;;;18.33;10.25;;;;;;;20.00;100.00;100382.25;4926072;29;20115;-71
2021/07/01 11:14:14;;;;;;;17.10;10.02;;;;;;;19.97;100.00;100377.63;4925520;29;20044;-71
2021/07/01 11:16:44;;;;;;;19.30;10.68;;;;;;;20.06;100.00;100380.56;4925128;29;20520;-71
2021/07/01 11:19:21;;;;;;;14.27;9.00;;;;;;;20.08;100.00;100378.94;4930032;29;21331;-72
2021/07/01 11:21:49;;;;;;;19.48;9.27;;;;;;;20.17;100.00;100379.09;4923936;29;20506;-71
2021/07/01 11:24:14;;;;;;;11.75;8.32;;;;;;;20.26;100.00;100378.56;4929080;29;20063;-71